sensor_id;sensor_type;location;lat;lon;timestamp;temperature;humidity
80676;SHT30;70041;46.088;18.268;2024-01-16T00:02:10;1.43;91.44
80676;SHT30;70041;46.088;18.268;2024-01-16T00:04:38;1.35;91.77
80676;SHT30;70041;46.088;18.268;2024-01-16T00:07:06;1.43;91.60
80676;SHT30;70041;46.088;18.268;2024-01-16T00:09:34;1.46;91.36
80676;SHT30;70041;46.088;18.268;2024-01-16T00:12:00;1.48;91.34
80676;SHT30;70041;46.088;18.268;2024-01-16T00:14:25;1.49;91.11
80676;SHT30;70041;46.088;18.268;2024-01-16T00:16:51;1.41;91.73
80676;SHT30;70041;46.088;18.268;2024-01-16T00:19:16;1.38;91.82
80676;SHT30;70041;46.088;18.268;2024-01-16T00:21:44;1.41;92.04
80676;SHT30;70041;46.088;18.268;2024-01-16T00:24:12;1.56;91.25
80676;SHT30;70041;46.088;18.268;2024-01-16T00:26:38;1.52;91.05
80676;SHT30;70041;46.088;18.268;2024-01-16T00:29:03;1.45;91.78
80676;SHT30;70041;46.088;18.268;2024-01-16T00:31:29;1.48;91.63
80676;SHT30;70041;46.088;18.268;2024-01-16T00:33:54;1.46;91.30
80676;SHT30;70041;46.088;18.268;2024-01-16T00:36:19;1.52;91.56
80676;SHT30;70041;46.088;18.268;2024-01-16T00:38:45;1.48;91.22
80676;SHT30;70041;46.088;18.268;2024-01-16T00:41:12;1.45;91.56
80676;SHT30;70041;46.088;18.268;2024-01-16T00:43:39;1.42;91.87
80676;SHT30;70041;46.088;18.268;2024-01-16T00:46:05;1.46;91.58
80676;SHT30;70041;46.088;18.268;2024-01-16T00:48:30;1.45;91.40
80676;SHT30;70041;46.088;18.268;2024-01-16T00:50:55;1.39;91.86
80676;SHT30;70041;46.088;18.268;2024-01-16T00:53:21;1.41;91.86
80676;SHT30;70041;46.088;18.268;2024-01-16T00:55:46;1.46;91.47
80676;SHT30;70041;46.088;18.268;2024-01-16T00:58:12;1.51;91.18
80676;SHT30;70041;46.088;18.268;2024-01-16T01:00:37;1.49;91.38
80676;SHT30;70041;46.088;18.268;2024-01-16T01:03:06;1.51;91.29
80676;SHT30;70041;46.088;18.268;2024-01-16T01:05:31;1.45;91.50
80676;SHT30;70041;46.088;18.268;2024-01-16T01:07:57;1.45;91.15
80676;SHT30;70041;46.088;18.268;2024-01-16T01:10:23;1.42;91.47
80676;SHT30;70041;46.088;18.268;2024-01-16T01:12:49;1.42;91.41
80676;SHT30;70041;46.088;18.268;2024-01-16T01:15:16;1.46;90.98
80676;SHT30;70041;46.088;18.268;2024-01-16T01:17:42;1.45;91.11
80676;SHT30;70041;46.088;18.268;2024-01-16T01:20:08;1.48;90.85
80676;SHT30;70041;46.088;18.268;2024-01-16T01:22:35;1.42;91.05
80676;SHT30;70041;46.088;18.268;2024-01-16T01:25:02;1.46;90.97
80676;SHT30;70041;46.088;18.268;2024-01-16T01:27:28;1.49;90.56
80676;SHT30;70041;46.088;18.268;2024-01-16T01:29:53;1.49;90.70
80676;SHT30;70041;46.088;18.268;2024-01-16T01:32:18;1.48;90.71
80676;SHT30;70041;46.088;18.268;2024-01-16T01:34:44;1.43;90.85
80676;SHT30;70041;46.088;18.268;2024-01-16T01:37:09;1.43;90.81
80676;SHT30;70041;46.088;18.268;2024-01-16T01:39:35;1.46;90.63
80676;SHT30;70041;46.088;18.268;2024-01-16T01:42:00;1.46;90.45
80676;SHT30;70041;46.088;18.268;2024-01-16T01:44:26;1.42;90.79
80676;SHT30;70041;46.088;18.268;2024-01-16T01:46:54;1.45;90.32
80676;SHT30;70041;46.088;18.268;2024-01-16T01:49:20;1.48;90.52
80676;SHT30;70041;46.088;18.268;2024-01-16T01:51:46;1.43;90.58
80676;SHT30;70041;46.088;18.268;2024-01-16T01:54:12;1.43;90.78
80676;SHT30;70041;46.088;18.268;2024-01-16T01:56:39;1.43;91.20
80676;SHT30;70041;46.088;18.268;2024-01-16T01:59:05;1.48;90.91
80676;SHT30;70041;46.088;18.268;2024-01-16T02:01:32;1.42;90.72
80676;SHT30;70041;46.088;18.268;2024-01-16T02:03:59;1.43;90.59
80676;SHT30;70041;46.088;18.268;2024-01-16T02:06:25;1.42;90.93
80676;SHT30;70041;46.088;18.268;2024-01-16T02:08:51;1.51;90.65
80676;SHT30;70041;46.088;18.268;2024-01-16T02:11:16;1.49;90.59
80676;SHT30;70041;46.088;18.268;2024-01-16T02:13:42;1.48;90.84
80676;SHT30;70041;46.088;18.268;2024-01-16T02:16:23;1.49;90.74
80676;SHT30;70041;46.088;18.268;2024-01-16T02:18:50;1.41;91.02
80676;SHT30;70041;46.088;18.268;2024-01-16T02:21:22;1.38;91.50
80676;SHT30;70041;46.088;18.268;2024-01-16T02:23:50;1.39;91.42
80676;SHT30;70041;46.088;18.268;2024-01-16T02:26:16;1.39;91.26
80676;SHT30;70041;46.088;18.268;2024-01-16T02:28:42;1.42;91.24
80676;SHT30;70041;46.088;18.268;2024-01-16T02:31:08;1.48;90.75
80676;SHT30;70041;46.088;18.268;2024-01-16T02:33:33;1.46;90.57
80676;SHT30;70041;46.088;18.268;2024-01-16T02:35:59;1.46;90.69
80676;SHT30;70041;46.088;18.268;2024-01-16T02:38:24;1.52;90.33
80676;SHT30;70041;46.088;18.268;2024-01-16T02:40:50;1.38;90.55
80676;SHT30;70041;46.088;18.268;2024-01-16T02:43:16;1.39;90.69
80676;SHT30;70041;46.088;18.268;2024-01-16T02:45:41;1.45;90.55
80676;SHT30;70041;46.088;18.268;2024-01-16T02:48:07;1.35;90.82
80676;SHT30;70041;46.088;18.268;2024-01-16T02:50:32;1.27;91.25
80676;SHT30;70041;46.088;18.268;2024-01-16T02:52:58;1.31;91.28
80676;SHT30;70041;46.088;18.268;2024-01-16T02:55:24;1.19;91.62
80676;SHT30;70041;46.088;18.268;2024-01-16T02:57:50;1.19;92.03
80676;SHT30;70041;46.088;18.268;2024-01-16T03:00:15;1.28;91.69
80676;SHT30;70041;46.088;18.268;2024-01-16T03:02:41;1.35;90.72
80676;SHT30;70041;46.088;18.268;2024-01-16T03:05:06;1.38;90.33
80676;SHT30;70041;46.088;18.268;2024-01-16T03:07:32;1.28;90.85
80676;SHT30;70041;46.088;18.268;2024-01-16T03:09:57;1.21;91.42
80676;SHT30;70041;46.088;18.268;2024-01-16T03:12:23;1.28;91.56
80676;SHT30;70041;46.088;18.268;2024-01-16T03:14:48;1.24;91.21
80676;SHT30;70041;46.088;18.268;2024-01-16T03:17:14;1.35;91.11
80676;SHT30;70041;46.088;18.268;2024-01-16T03:19:39;1.32;90.76
80676;SHT30;70041;46.088;18.268;2024-01-16T03:22:05;1.35;90.89
80676;SHT30;70041;46.088;18.268;2024-01-16T03:24:30;1.32;91.11
80676;SHT30;70041;46.088;18.268;2024-01-16T03:26:56;1.28;91.23
80676;SHT30;70041;46.088;18.268;2024-01-16T03:29:21;1.39;90.76
80676;SHT30;70041;46.088;18.268;2024-01-16T03:31:47;1.46;90.04
80676;SHT30;70041;46.088;18.268;2024-01-16T03:34:13;1.51;89.29
80676;SHT30;70041;46.088;18.268;2024-01-16T03:36:38;1.53;88.96
80676;SHT30;70041;46.088;18.268;2024-01-16T03:39:04;1.62;88.75
80676;SHT30;70041;46.088;18.268;2024-01-16T03:41:30;1.64;88.31
80676;SHT30;70041;46.088;18.268;2024-01-16T03:43:56;1.58;88.03
80676;SHT30;70041;46.088;18.268;2024-01-16T03:46:22;1.55;88.22
80676;SHT30;70041;46.088;18.268;2024-01-16T03:48:48;1.39;88.12
80676;SHT30;70041;46.088;18.268;2024-01-16T03:51:14;1.18;88.65
80676;SHT30;70041;46.088;18.268;2024-01-16T03:53:43;1.05;89.47
80676;SHT30;70041;46.088;18.268;2024-01-16T03:56:08;0.90;89.91
80676;SHT30;70041;46.088;18.268;2024-01-16T03:58:34;0.78;90.16
80676;SHT30;70041;46.088;18.268;2024-01-16T04:00:59;0.70;90.24
80676;SHT30;70041;46.088;18.268;2024-01-16T04:03:24;0.56;90.22
80676;SHT30;70041;46.088;18.268;2024-01-16T04:05:50;0.46;90.89
80676;SHT30;70041;46.088;18.268;2024-01-16T04:08:15;0.49;91.40
80676;SHT30;70041;46.088;18.268;2024-01-16T04:10:41;0.42;91.81
80676;SHT30;70041;46.088;18.268;2024-01-16T04:13:07;0.32;92.17
80676;SHT30;70041;46.088;18.268;2024-01-16T04:15:33;0.36;92.81
80676;SHT30;70041;46.088;18.268;2024-01-16T04:17:59;0.36;93.10
80676;SHT30;70041;46.088;18.268;2024-01-16T04:20:25;0.19;92.97
80676;SHT30;70041;46.088;18.268;2024-01-16T04:22:50;0.23;93.19
80676;SHT30;70041;46.088;18.268;2024-01-16T04:25:16;0.22;93.50
80676;SHT30;70041;46.088;18.268;2024-01-16T04:27:41;0.15;93.46
80676;SHT30;70041;46.088;18.268;2024-01-16T04:30:07;0.19;93.22
80676;SHT30;70041;46.088;18.268;2024-01-16T04:32:33;0.17;93.32
80676;SHT30;70041;46.088;18.268;2024-01-16T04:34:58;0.20;93.39
80676;SHT30;70041;46.088;18.268;2024-01-16T04:37:24;0.30;93.01
80676;SHT30;70041;46.088;18.268;2024-01-16T04:39:49;0.12;91.07
80676;SHT30;70041;46.088;18.268;2024-01-16T04:42:15;0.17;91.37
80676;SHT30;70041;46.088;18.268;2024-01-16T04:44:43;0.10;92.25
80676;SHT30;70041;46.088;18.268;2024-01-16T04:47:08;0.23;91.86
80676;SHT30;70041;46.088;18.268;2024-01-16T04:49:34;0.10;89.53
80676;SHT30;70041;46.088;18.268;2024-01-16T04:51:59;-0.04;90.43
80676;SHT30;70041;46.088;18.268;2024-01-16T04:54:25;-0.04;91.68
80676;SHT30;70041;46.088;18.268;2024-01-16T04:56:50;0.19;92.06
80676;SHT30;70041;46.088;18.268;2024-01-16T04:59:16;0.26;91.69
80676;SHT30;70041;46.088;18.268;2024-01-16T05:01:41;0.30;91.18
80676;SHT30;70041;46.088;18.268;2024-01-16T05:04:07;0.29;91.26
80676;SHT30;70041;46.088;18.268;2024-01-16T05:06:34;0.29;90.44
80676;SHT30;70041;46.088;18.268;2024-01-16T05:09:00;-0.01;89.14
80676;SHT30;70041;46.088;18.268;2024-01-16T05:11:25;-0.11;89.57
80676;SHT30;70041;46.088;18.268;2024-01-16T05:13:51;-0.04;89.29
80676;SHT30;70041;46.088;18.268;2024-01-16T05:16:23;0.03;88.87
80676;SHT30;70041;46.088;18.268;2024-01-16T05:18:49;-0.05;88.71
80676;SHT30;70041;46.088;18.268;2024-01-16T05:21:14;-0.06;90.19
80676;SHT30;70041;46.088;18.268;2024-01-16T05:23:39;-0.09;91.04
80676;SHT30;70041;46.088;18.268;2024-01-16T05:26:05;0.07;90.55
80676;SHT30;70041;46.088;18.268;2024-01-16T05:28:30;0.22;88.30
80676;SHT30;70041;46.088;18.268;2024-01-16T05:30:56;0.22;87.77
80676;SHT30;70041;46.088;18.268;2024-01-16T05:33:21;0.15;87.98
80676;SHT30;70041;46.088;18.268;2024-01-16T05:35:46;0.03;88.27
80676;SHT30;70041;46.088;18.268;2024-01-16T05:38:12;0.10;88.30
80676;SHT30;70041;46.088;18.268;2024-01-16T05:40:38;0.09;87.86
80676;SHT30;70041;46.088;18.268;2024-01-16T05:43:03;-0.01;88.71
80676;SHT30;70041;46.088;18.268;2024-01-16T05:45:29;-0.06;89.79
80676;SHT30;70041;46.088;18.268;2024-01-16T05:47:54;-0.01;90.23
80676;SHT30;70041;46.088;18.268;2024-01-16T05:50:20;-0.02;89.85
80676;SHT30;70041;46.088;18.268;2024-01-16T05:52:46;0.15;89.51
80676;SHT30;70041;46.088;18.268;2024-01-16T05:55:11;0.26;89.58
80676;SHT30;70041;46.088;18.268;2024-01-16T05:57:36;0.23;89.73
80676;SHT30;70041;46.088;18.268;2024-01-16T06:00:03;0.20;90.88
80676;SHT30;70041;46.088;18.268;2024-01-16T06:02:29;0.25;91.29
80676;SHT30;70041;46.088;18.268;2024-01-16T06:04:54;0.29;91.62
80676;SHT30;70041;46.088;18.268;2024-01-16T06:07:19;0.36;91.14
80676;SHT30;70041;46.088;18.268;2024-01-16T06:09:45;0.27;91.33
80676;SHT30;70041;46.088;18.268;2024-01-16T06:12:11;0.29;91.27
80676;SHT30;70041;46.088;18.268;2024-01-16T06:14:37;0.20;90.56
80676;SHT30;70041;46.088;18.268;2024-01-16T06:17:03;0.19;90.14
80676;SHT30;70041;46.088;18.268;2024-01-16T06:19:30;0.30;89.82
80676;SHT30;70041;46.088;18.268;2024-01-16T06:21:56;0.20;89.26
80676;SHT30;70041;46.088;18.268;2024-01-16T06:24:22;0.22;88.96
80676;SHT30;70041;46.088;18.268;2024-01-16T06:26:47;0.19;89.76
80676;SHT30;70041;46.088;18.268;2024-01-16T06:29:12;0.17;90.60
80676;SHT30;70041;46.088;18.268;2024-01-16T06:31:38;0.29;91.43
80676;SHT30;70041;46.088;18.268;2024-01-16T06:34:03;0.22;92.07
80676;SHT30;70041;46.088;18.268;2024-01-16T06:36:29;0.35;91.62
80676;SHT30;70041;46.088;18.268;2024-01-16T06:38:54;0.23;91.94
80676;SHT30;70041;46.088;18.268;2024-01-16T06:41:20;0.05;92.24
80676;SHT30;70041;46.088;18.268;2024-01-16T06:43:46;0.10;91.91
80676;SHT30;70041;46.088;18.268;2024-01-16T06:46:11;0.17;91.19
80676;SHT30;70041;46.088;18.268;2024-01-16T06:48:37;0.22;91.23
80676;SHT30;70041;46.088;18.268;2024-01-16T06:51:03;0.22;90.82
80676;SHT30;70041;46.088;18.268;2024-01-16T06:53:29;-0.14;91.25
80676;SHT30;70041;46.088;18.268;2024-01-16T06:55:55;-0.18;89.63
80676;SHT30;70041;46.088;18.268;2024-01-16T06:58:20;-0.16;89.13
80676;SHT30;70041;46.088;18.268;2024-01-16T07:00:47;-0.11;89.83
80676;SHT30;70041;46.088;18.268;2024-01-16T07:03:13;-0.08;89.85
80676;SHT30;70041;46.088;18.268;2024-01-16T07:05:39;0.06;89.95
80676;SHT30;70041;46.088;18.268;2024-01-16T07:08:06;0.05;88.61
80676;SHT30;70041;46.088;18.268;2024-01-16T07:10:32;-0.04;89.20
80676;SHT30;70041;46.088;18.268;2024-01-16T07:12:57;-0.06;89.17
80676;SHT30;70041;46.088;18.268;2024-01-16T07:15:22;0.09;89.07
80676;SHT30;70041;46.088;18.268;2024-01-16T07:17:48;0.07;89.74
80676;SHT30;70041;46.088;18.268;2024-01-16T07:20:13;-0.12;89.10
80676;SHT30;70041;46.088;18.268;2024-01-16T07:22:39;-0.35;88.74
80676;SHT30;70041;46.088;18.268;2024-01-16T07:25:06;-0.49;89.47
80676;SHT30;70041;46.088;18.268;2024-01-16T07:27:32;-0.53;89.18
80676;SHT30;70041;46.088;18.268;2024-01-16T07:29:58;-0.40;89.45
80676;SHT30;70041;46.088;18.268;2024-01-16T07:32:23;-0.19;89.15
80676;SHT30;70041;46.088;18.268;2024-01-16T07:34:48;-0.15;88.54
80676;SHT30;70041;46.088;18.268;2024-01-16T07:37:14;-0.06;88.08
80676;SHT30;70041;46.088;18.268;2024-01-16T07:39:41;0.12;87.78
80676;SHT30;70041;46.088;18.268;2024-01-16T07:42:06;0.17;87.75
80676;SHT30;70041;46.088;18.268;2024-01-16T07:44:33;0.16;87.55
80676;SHT30;70041;46.088;18.268;2024-01-16T07:46:58;0.09;88.09
80676;SHT30;70041;46.088;18.268;2024-01-16T07:49:23;0.17;88.60
80676;SHT30;70041;46.088;18.268;2024-01-16T07:51:49;0.37;88.92
80676;SHT30;70041;46.088;18.268;2024-01-16T07:54:14;0.46;89.04
80676;SHT30;70041;46.088;18.268;2024-01-16T07:56:40;0.47;89.45
80676;SHT30;70041;46.088;18.268;2024-01-16T07:59:05;0.40;89.86
80676;SHT30;70041;46.088;18.268;2024-01-16T08:01:30;0.47;89.72
80676;SHT30;70041;46.088;18.268;2024-01-16T08:03:56;0.70;88.25
80676;SHT30;70041;46.088;18.268;2024-01-16T08:06:22;0.73;87.79
80676;SHT30;70041;46.088;18.268;2024-01-16T08:08:48;0.64;88.05
80676;SHT30;70041;46.088;18.268;2024-01-16T08:11:14;0.61;88.60
80676;SHT30;70041;46.088;18.268;2024-01-16T08:13:40;0.77;87.69
80676;SHT30;70041;46.088;18.268;2024-01-16T08:16:05;0.84;87.30
80676;SHT30;70041;46.088;18.268;2024-01-16T08:18:31;0.77;86.27
80676;SHT30;70041;46.088;18.268;2024-01-16T08:20:57;0.85;85.88
80676;SHT30;70041;46.088;18.268;2024-01-16T08:23:22;0.68;85.53
80676;SHT30;70041;46.088;18.268;2024-01-16T08:25:48;0.49;85.62
80676;SHT30;70041;46.088;18.268;2024-01-16T08:28:14;0.42;85.85
80676;SHT30;70041;46.088;18.268;2024-01-16T08:30:39;0.29;86.81
80676;SHT30;70041;46.088;18.268;2024-01-16T08:33:05;0.23;86.43
80676;SHT30;70041;46.088;18.268;2024-01-16T08:35:30;0.22;86.91
80676;SHT30;70041;46.088;18.268;2024-01-16T08:37:55;0.27;87.27
80676;SHT30;70041;46.088;18.268;2024-01-16T08:40:21;0.30;87.76
80676;SHT30;70041;46.088;18.268;2024-01-16T08:42:46;0.19;88.08
80676;SHT30;70041;46.088;18.268;2024-01-16T08:45:17;0.25;88.67
80676;SHT30;70041;46.088;18.268;2024-01-16T08:47:42;0.39;88.97
80676;SHT30;70041;46.088;18.268;2024-01-16T08:50:07;0.54;88.95
80676;SHT30;70041;46.088;18.268;2024-01-16T08:52:34;0.85;88.20
80676;SHT30;70041;46.088;18.268;2024-01-16T08:55:00;1.24;86.36
80676;SHT30;70041;46.088;18.268;2024-01-16T08:57:26;1.43;86.39
80676;SHT30;70041;46.088;18.268;2024-01-16T08:59:52;1.60;86.13
80676;SHT30;70041;46.088;18.268;2024-01-16T09:02:18;1.74;85.16
80676;SHT30;70041;46.088;18.268;2024-01-16T09:04:43;1.84;84.79
80676;SHT30;70041;46.088;18.268;2024-01-16T09:07:09;1.73;84.94
80676;SHT30;70041;46.088;18.268;2024-01-16T09:09:34;1.86;84.72
80676;SHT30;70041;46.088;18.268;2024-01-16T09:12:00;1.90;84.37
80676;SHT30;70041;46.088;18.268;2024-01-16T09:14:25;2.07;84.51
80676;SHT30;70041;46.088;18.268;2024-01-16T09:16:50;2.07;83.28
80676;SHT30;70041;46.088;18.268;2024-01-16T09:19:16;1.94;83.39
80676;SHT30;70041;46.088;18.268;2024-01-16T09:21:41;1.80;83.90
80676;SHT30;70041;46.088;18.268;2024-01-16T09:24:07;1.83;84.17
80676;SHT30;70041;46.088;18.268;2024-01-16T09:26:33;1.90;84.94
80676;SHT30;70041;46.088;18.268;2024-01-16T09:28:59;1.89;84.72
80676;SHT30;70041;46.088;18.268;2024-01-16T09:31:24;1.72;86.36
80676;SHT30;70041;46.088;18.268;2024-01-16T09:33:50;1.66;87.03
80676;SHT30;70041;46.088;18.268;2024-01-16T09:36:15;1.77;85.84
80676;SHT30;70041;46.088;18.268;2024-01-16T09:38:41;1.82;85.24
80676;SHT30;70041;46.088;18.268;2024-01-16T09:41:06;1.84;85.37
80676;SHT30;70041;46.088;18.268;2024-01-16T09:43:33;1.94;86.21
80676;SHT30;70041;46.088;18.268;2024-01-16T09:46:04;1.93;86.92
80676;SHT30;70041;46.088;18.268;2024-01-16T09:48:31;2.24;84.98
80676;SHT30;70041;46.088;18.268;2024-01-16T09:50:57;2.33;84.03
80676;SHT30;70041;46.088;18.268;2024-01-16T09:53:23;2.23;84.10
80676;SHT30;70041;46.088;18.268;2024-01-16T09:55:50;2.21;84.86
80676;SHT30;70041;46.088;18.268;2024-01-16T09:58:18;2.37;84.03
80676;SHT30;70041;46.088;18.268;2024-01-16T10:00:44;2.38;82.95
80676;SHT30;70041;46.088;18.268;2024-01-16T10:03:12;2.21;84.11
80676;SHT30;70041;46.088;18.268;2024-01-16T10:05:40;1.92;84.81
80676;SHT30;70041;46.088;18.268;2024-01-16T10:08:06;1.87;85.06
80676;SHT30;70041;46.088;18.268;2024-01-16T10:10:33;1.77;85.36
80676;SHT30;70041;46.088;18.268;2024-01-16T10:12:58;1.74;85.60
80676;SHT30;70041;46.088;18.268;2024-01-16T10:15:24;1.67;85.57
80676;SHT30;70041;46.088;18.268;2024-01-16T10:17:50;1.49;86.06
80676;SHT30;70041;46.088;18.268;2024-01-16T10:20:16;1.73;86.01
80676;SHT30;70041;46.088;18.268;2024-01-16T10:22:53;2.02;85.01
80676;SHT30;70041;46.088;18.268;2024-01-16T10:25:19;1.93;84.50
80676;SHT30;70041;46.088;18.268;2024-01-16T10:27:47;2.20;84.51
80676;SHT30;70041;46.088;18.268;2024-01-16T10:30:12;2.44;82.69
80676;SHT30;70041;46.088;18.268;2024-01-16T10:32:40;2.49;82.02
80676;SHT30;70041;46.088;18.268;2024-01-16T10:35:09;2.54;82.38
80676;SHT30;70041;46.088;18.268;2024-01-16T10:37:54;2.72;81.57
80676;SHT30;70041;46.088;18.268;2024-01-16T10:40:21;2.86;83.02
80676;SHT30;70041;46.088;18.268;2024-01-16T10:43:01;3.20;82.60
80676;SHT30;70041;46.088;18.268;2024-01-16T10:45:27;2.74;81.88
80676;SHT30;70041;46.088;18.268;2024-01-16T10:48:11;3.10;83.11
80676;SHT30;70041;46.088;18.268;2024-01-16T10:50:37;2.76;82.86
80676;SHT30;70041;46.088;18.268;2024-01-16T10:53:04;2.55;83.28
80676;SHT30;70041;46.088;18.268;2024-01-16T10:55:31;2.51;83.56
80676;SHT30;70041;46.088;18.268;2024-01-16T10:57:57;2.28;82.83
80676;SHT30;70041;46.088;18.268;2024-01-16T11:00:23;2.18;83.62
80676;SHT30;70041;46.088;18.268;2024-01-16T11:03:07;2.34;82.76
80676;SHT30;70041;46.088;18.268;2024-01-16T11:05:35;2.35;82.42
80676;SHT30;70041;46.088;18.268;2024-01-16T11:08:01;2.02;83.25
80676;SHT30;70041;46.088;18.268;2024-01-16T11:10:29;1.92;84.22
80676;SHT30;70041;46.088;18.268;2024-01-16T11:13:00;1.90;84.87
80676;SHT30;70041;46.088;18.268;2024-01-16T11:15:26;1.86;85.22
80676;SHT30;70041;46.088;18.268;2024-01-16T11:17:57;1.90;84.46
80676;SHT30;70041;46.088;18.268;2024-01-16T11:20:25;1.97;84.49
80676;SHT30;70041;46.088;18.268;2024-01-16T11:22:52;1.97;85.02
80676;SHT30;70041;46.088;18.268;2024-01-16T11:25:31;1.90;84.43
80676;SHT30;70041;46.088;18.268;2024-01-16T11:28:08;1.97;84.90
80676;SHT30;70041;46.088;18.268;2024-01-16T11:30:34;2.02;84.24
80676;SHT30;70041;46.088;18.268;2024-01-16T11:32:59;2.15;83.95
80676;SHT30;70041;46.088;18.268;2024-01-16T11:35:32;2.31;83.89
80676;SHT30;70041;46.088;18.268;2024-01-16T11:38:11;2.41;83.42
80676;SHT30;70041;46.088;18.268;2024-01-16T11:40:39;2.40;82.95
80676;SHT30;70041;46.088;18.268;2024-01-16T11:46:05;2.86;82.03
80676;SHT30;70041;46.088;18.268;2024-01-16T11:48:32;2.75;82.98
80676;SHT30;70041;46.088;18.268;2024-01-16T11:50:58;2.93;82.39
80676;SHT30;70041;46.088;18.268;2024-01-16T11:58:55;1.97;85.18
80676;SHT30;70041;46.088;18.268;2024-01-16T12:01:23;2.20;85.03
80676;SHT30;70041;46.088;18.268;2024-01-16T12:04:07;2.52;83.07
80676;SHT30;70041;46.088;18.268;2024-01-16T12:06:35;2.24;83.95
80676;SHT30;70041;46.088;18.268;2024-01-16T12:09:14;2.18;84.21
80676;SHT30;70041;46.088;18.268;2024-01-16T12:11:40;2.27;84.03
80676;SHT30;70041;46.088;18.268;2024-01-16T12:14:06;1.97;84.14
80676;SHT30;70041;46.088;18.268;2024-01-16T12:16:32;2.11;84.48
80676;SHT30;70041;46.088;18.268;2024-01-16T12:19:10;2.21;84.43
80676;SHT30;70041;46.088;18.268;2024-01-16T12:21:39;2.04;84.88
80676;SHT30;70041;46.088;18.268;2024-01-16T12:24:07;2.14;84.74
80676;SHT30;70041;46.088;18.268;2024-01-16T12:26:33;2.33;83.81
80676;SHT30;70041;46.088;18.268;2024-01-16T12:28:58;2.23;84.99
80676;SHT30;70041;46.088;18.268;2024-01-16T12:31:25;2.30;84.94
80676;SHT30;70041;46.088;18.268;2024-01-16T12:33:51;2.31;84.03
80676;SHT30;70041;46.088;18.268;2024-01-16T12:36:16;2.34;84.13
80676;SHT30;70041;46.088;18.268;2024-01-16T12:38:42;2.33;84.19
80676;SHT30;70041;46.088;18.268;2024-01-16T12:41:09;2.21;84.32
80676;SHT30;70041;46.088;18.268;2024-01-16T12:43:35;2.13;84.19
80676;SHT30;70041;46.088;18.268;2024-01-16T12:46:04;2.00;83.93
80676;SHT30;70041;46.088;18.268;2024-01-16T12:48:31;1.87;84.13
80676;SHT30;70041;46.088;18.268;2024-01-16T12:51:00;1.76;84.80
80676;SHT30;70041;46.088;18.268;2024-01-16T12:53:27;1.99;84.52
80676;SHT30;70041;46.088;18.268;2024-01-16T12:56:00;2.10;83.74
80676;SHT30;70041;46.088;18.268;2024-01-16T12:58:32;1.93;83.63
80676;SHT30;70041;46.088;18.268;2024-01-16T13:01:22;1.99;84.14
80676;SHT30;70041;46.088;18.268;2024-01-16T13:03:49;2.30;82.77
80676;SHT30;70041;46.088;18.268;2024-01-16T13:06:20;2.45;82.48
80676;SHT30;70041;46.088;18.268;2024-01-16T13:08:49;2.41;82.47
80676;SHT30;70041;46.088;18.268;2024-01-16T13:11:15;2.15;83.18
80676;SHT30;70041;46.088;18.268;2024-01-16T13:13:45;2.17;83.78
80676;SHT30;70041;46.088;18.268;2024-01-16T13:16:11;2.21;83.57
80676;SHT30;70041;46.088;18.268;2024-01-16T13:18:36;2.11;83.72
80676;SHT30;70041;46.088;18.268;2024-01-16T13:21:02;2.15;84.25
80676;SHT30;70041;46.088;18.268;2024-01-16T13:23:28;2.31;83.41
80676;SHT30;70041;46.088;18.268;2024-01-16T13:25:55;2.34;84.20
80676;SHT30;70041;46.088;18.268;2024-01-16T13:28:28;2.40;83.60
80676;SHT30;70041;46.088;18.268;2024-01-16T13:30:55;2.40;83.19
80676;SHT30;70041;46.088;18.268;2024-01-16T13:33:23;2.46;83.48
80676;SHT30;70041;46.088;18.268;2024-01-16T13:35:48;2.41;83.87
80676;SHT30;70041;46.088;18.268;2024-01-16T13:38:15;2.51;85.16
80676;SHT30;70041;46.088;18.268;2024-01-16T13:40:44;2.55;84.59
80676;SHT30;70041;46.088;18.268;2024-01-16T13:43:10;2.61;83.50
80676;SHT30;70041;46.088;18.268;2024-01-16T13:45:37;2.69;83.49
80676;SHT30;70041;46.088;18.268;2024-01-16T13:48:04;2.27;84.94
80676;SHT30;70041;46.088;18.268;2024-01-16T13:50:31;2.15;85.76
80676;SHT30;70041;46.088;18.268;2024-01-16T13:52:57;2.21;85.24
80676;SHT30;70041;46.088;18.268;2024-01-16T13:55:22;2.07;85.60
80676;SHT30;70041;46.088;18.268;2024-01-16T13:57:48;2.09;85.81
80676;SHT30;70041;46.088;18.268;2024-01-16T14:00:14;2.15;86.51
80676;SHT30;70041;46.088;18.268;2024-01-16T14:02:47;2.09;85.47
80676;SHT30;70041;46.088;18.268;2024-01-16T14:05:15;2.13;85.41
80676;SHT30;70041;46.088;18.268;2024-01-16T14:07:49;2.03;85.97
80676;SHT30;70041;46.088;18.268;2024-01-16T14:10:18;1.96;85.81
80676;SHT30;70041;46.088;18.268;2024-01-16T14:12:45;1.73;86.55
80676;SHT30;70041;46.088;18.268;2024-01-16T14:15:12;1.56;86.96
80676;SHT30;70041;46.088;18.268;2024-01-16T14:17:46;1.19;88.23
80676;SHT30;70041;46.088;18.268;2024-01-16T14:20:13;1.15;88.82
80676;SHT30;70041;46.088;18.268;2024-01-16T14:22:39;1.27;89.05
80676;SHT30;70041;46.088;18.268;2024-01-16T14:25:09;1.27;88.71
80676;SHT30;70041;46.088;18.268;2024-01-16T14:27:41;1.25;88.30
80676;SHT30;70041;46.088;18.268;2024-01-16T14:30:11;1.21;89.16
80676;SHT30;70041;46.088;18.268;2024-01-16T14:32:39;1.29;88.77
80676;SHT30;70041;46.088;18.268;2024-01-16T14:35:05;0.88;90.00
80676;SHT30;70041;46.088;18.268;2024-01-16T14:37:31;0.63;91.07
80676;SHT30;70041;46.088;18.268;2024-01-16T14:39:58;0.63;91.17
80676;SHT30;70041;46.088;18.268;2024-01-16T14:42:27;0.71;90.63
80676;SHT30;70041;46.088;18.268;2024-01-16T14:44:53;0.77;90.85
80676;SHT30;70041;46.088;18.268;2024-01-16T14:47:18;0.90;89.99
80676;SHT30;70041;46.088;18.268;2024-01-16T14:49:43;0.95;89.92
80676;SHT30;70041;46.088;18.268;2024-01-16T14:52:09;0.91;89.65
80676;SHT30;70041;46.088;18.268;2024-01-16T14:54:34;0.66;89.96
80676;SHT30;70041;46.088;18.268;2024-01-16T14:57:00;0.64;90.59
80676;SHT30;70041;46.088;18.268;2024-01-16T14:59:25;0.78;90.16
80676;SHT30;70041;46.088;18.268;2024-01-16T15:01:50;0.97;90.23
80676;SHT30;70041;46.088;18.268;2024-01-16T15:04:18;0.87;90.15
80676;SHT30;70041;46.088;18.268;2024-01-16T15:06:43;0.84;90.25
80676;SHT30;70041;46.088;18.268;2024-01-16T15:09:09;0.90;89.76
80676;SHT30;70041;46.088;18.268;2024-01-16T15:11:38;0.76;90.41
80676;SHT30;70041;46.088;18.268;2024-01-16T15:14:03;0.80;90.51
80676;SHT30;70041;46.088;18.268;2024-01-16T15:16:30;0.87;90.04
80676;SHT30;70041;46.088;18.268;2024-01-16T15:18:56;0.83;89.50
80676;SHT30;70041;46.088;18.268;2024-01-16T15:21:22;0.71;89.62
80676;SHT30;70041;46.088;18.268;2024-01-16T15:23:47;0.77;89.90
80676;SHT30;70041;46.088;18.268;2024-01-16T15:26:13;0.83;89.97
80676;SHT30;70041;46.088;18.268;2024-01-16T15:28:44;0.84;90.06
80676;SHT30;70041;46.088;18.268;2024-01-16T15:31:09;0.97;89.54
80676;SHT30;70041;46.088;18.268;2024-01-16T15:33:35;0.91;89.38
80676;SHT30;70041;46.088;18.268;2024-01-16T15:36:01;0.91;89.67